createdAt,value
2022-09-14T00:01:25.456Z,97653.97
2022-09-14T00:03:55.064Z,97651.66
2022-09-14T00:06:21.992Z,97662.25
2022-09-14T00:08:52.957Z,97663.59
2022-09-14T00:11:21.630Z,97669.06
2022-09-14T00:13:49.007Z,97659.75
2022-09-14T00:16:27.256Z,97674.81
2022-09-14T00:19:00.564Z,97651.97
2022-09-14T00:21:27.877Z,97662.94
2022-09-14T00:23:54.430Z,97650.09
2022-09-14T00:26:23.263Z,97657.72
2022-09-14T00:28:56.447Z,97661.81
2022-09-14T00:31:24.862Z,97664.53
2022-09-14T00:33:53.829Z,97647.19
2022-09-14T00:36:26.200Z,97648.69
2022-09-14T00:38:56.476Z,97643.34
2022-09-14T00:41:25.527Z,97638.56
2022-09-14T00:43:57.684Z,97628.50
2022-09-14T00:46:26.260Z,97630.50
2022-09-14T00:48:53.626Z,97642.00
2022-09-14T00:51:21.929Z,97640.53
2022-09-14T00:53:48.594Z,97641.66
2022-09-14T00:56:15.673Z,97646.22
2022-09-14T00:58:44.696Z,97645.84
2022-09-14T01:01:11.591Z,97655.13
2022-09-14T01:03:38.057Z,97656.25
2022-09-14T01:06:35.437Z,97653.59
2022-09-14T01:09:24.882Z,97655.84
2022-09-14T01:11:57.117Z,97656.00
2022-09-14T01:14:44.823Z,97661.03
2022-09-14T01:17:18.058Z,97639.72
2022-09-14T01:19:59.453Z,97643.72
2022-09-14T01:22:42.927Z,97645.78
2022-09-14T01:25:33.864Z,97643.72
2022-09-14T01:28:03.652Z,97640.84
2022-09-14T01:30:33.570Z,97630.69
2022-09-14T01:33:13.953Z,97629.38
2022-09-14T01:36:08.320Z,97639.09
2022-09-14T01:38:43.586Z,97632.25
2022-09-14T01:41:13.408Z,97643.31
2022-09-14T01:43:57.565Z,97658.00
2022-09-14T01:46:31.697Z,97644.78
2022-09-14T01:49:02.343Z,97637.72
2022-09-14T01:51:36.270Z,97632.25
2022-09-14T01:54:26.888Z,97627.03
2022-09-14T01:57:05.496Z,97627.91
2022-09-14T01:59:37.458Z,97627.72
2022-09-14T02:02:18.157Z,97634.06
2022-09-14T02:04:54.278Z,97637.00
2022-09-14T02:07:20.865Z,97633.25
2022-09-14T02:09:49.018Z,97633.97
2022-09-14T02:12:15.955Z,97638.03
2022-09-14T02:17:09.634Z,97649.28
2022-09-14T02:19:55.288Z,97649.69
2022-09-14T02:22:21.948Z,97649.69
2022-09-14T02:24:49.152Z,97646.75
2022-09-14T02:27:15.551Z,97657.22
2022-09-14T02:29:42.109Z,97652.47
2022-09-14T02:32:21.187Z,97640.19
2022-09-14T02:34:53.305Z,97642.88
2022-09-14T02:37:35.751Z,97651.25
2022-09-14T02:40:31.299Z,97641.66
2022-09-14T02:43:03.479Z,97642.94
2022-09-14T02:45:50.724Z,97642.94
2022-09-14T02:48:31.377Z,97643.50
2022-09-14T02:51:25.296Z,97636.06
2022-09-14T02:53:59.843Z,97642.63
2022-09-14T02:56:28.711Z,97652.63
2022-09-14T02:58:55.881Z,97643.44
2022-09-14T03:01:24.319Z,97643.81
2022-09-14T03:03:51.000Z,97637.16
2022-09-14T03:06:17.735Z,97643.59
2022-09-14T03:08:44.504Z,97638.81
2022-09-14T03:11:11.173Z,97634.31
2022-09-14T03:13:37.925Z,97631.22
2022-09-14T03:16:09.387Z,97625.03
2022-09-14T03:18:36.973Z,97631.22
2022-09-14T03:21:08.967Z,97621.84
2022-09-14T03:23:40.310Z,97620.69
2022-09-14T03:26:12.224Z,97627.19
2022-09-14T03:28:39.210Z,97642.88
2022-09-14T03:31:07.929Z,97638.19
2022-09-14T03:33:35.199Z,97636.31
2022-09-14T03:36:09.230Z,97641.53
2022-09-14T03:38:35.650Z,97636.78
2022-09-14T03:41:07.120Z,97634.00
2022-09-14T03:43:33.881Z,97622.63
2022-09-14T03:46:08.591Z,97621.13
2022-09-14T03:48:35.604Z,97622.34
2022-09-14T03:51:03.894Z,97618.22
2022-09-14T03:53:30.821Z,97603.59
2022-09-14T03:55:57.446Z,97599.94
2022-09-14T03:58:24.412Z,97587.31
2022-09-14T04:00:51.444Z,97587.81
2022-09-14T04:03:18.559Z,97581.31
2022-09-14T04:05:55.183Z,97570.81
2022-09-14T04:08:21.974Z,97574.22
2022-09-14T04:10:48.406Z,97574.94
2022-09-14T04:13:14.829Z,97578.34
2022-09-14T04:15:41.499Z,97578.22
2022-09-14T04:18:07.937Z,97581.59
2022-09-14T04:20:35.215Z,97582.19
2022-09-14T04:23:01.622Z,97595.34
2022-09-14T04:25:28.045Z,97586.09
2022-09-14T04:28:16.621Z,97584.03
2022-09-14T04:30:41.166Z,97584.44
2022-09-14T04:33:07.630Z,97582.97
2022-09-14T04:35:34.097Z,97578.03
2022-09-14T04:38:00.519Z,97587.88
2022-09-14T04:40:28.877Z,97582.25
2022-09-14T04:42:55.396Z,97585.31
2022-09-14T04:45:21.807Z,97588.34
2022-09-14T04:47:48.389Z,97581.69
2022-09-14T04:50:15.267Z,97577.44
2022-09-14T04:52:41.765Z,97576.41
2022-09-14T04:55:08.522Z,97580.06
2022-09-14T04:57:34.944Z,97579.28
2022-09-14T05:00:01.581Z,97584.88
2022-09-14T05:02:30.932Z,97573.31
2022-09-14T05:04:58.870Z,97572.38
2022-09-14T05:07:25.278Z,97576.59
2022-09-14T05:09:51.761Z,97581.09
2022-09-14T05:12:18.190Z,97571.16
2022-09-14T05:14:44.603Z,97563.28
2022-09-14T05:17:11.093Z,97563.59
2022-09-14T05:19:37.541Z,97561.81
2022-09-14T05:22:04.049Z,97569.50
2022-09-14T05:24:31.012Z,97559.13
2022-09-14T05:27:01.009Z,97565.03
2022-09-14T05:29:29.577Z,97563.44
2022-09-14T05:31:56.074Z,97569.47
2022-09-14T05:34:22.532Z,97563.69
2022-09-14T05:36:49.039Z,97563.69
2022-09-14T05:39:18.697Z,97570.16
2022-09-14T05:41:50.074Z,97565.41
2022-09-14T05:44:16.581Z,97567.13
2022-09-14T05:46:43.050Z,97571.66
2022-09-14T05:49:09.556Z,97560.88
2022-09-14T05:51:35.963Z,97551.41
2022-09-14T05:54:03.087Z,97547.31
2022-09-14T05:56:31.754Z,97552.81
2022-09-14T05:58:59.351Z,97552.03
2022-09-14T06:01:31.746Z,97555.72
2022-09-14T06:04:02.135Z,97562.19
2022-09-14T06:06:30.281Z,97556.09
2022-09-14T06:08:57.188Z,97554.22
2022-09-14T06:11:29.194Z,97548.78
2022-09-14T06:13:56.278Z,97541.59
2022-09-14T06:16:24.670Z,97556.06
2022-09-14T06:18:51.207Z,97558.31
2022-09-14T06:21:19.840Z,97570.63
2022-09-14T06:23:47.609Z,97565.84
2022-09-14T06:26:14.427Z,97581.19
2022-09-14T06:28:41.206Z,97593.16
2022-09-14T06:31:09.973Z,97596.69
2022-09-14T06:33:37.122Z,97601.13
2022-09-14T06:36:12.664Z,97610.34
2022-09-14T06:38:40.347Z,97609.00
2022-09-14T06:41:09.202Z,97598.81
2022-09-14T06:43:41.357Z,97605.81
2022-09-14T06:46:14.660Z,97612.25
2022-09-14T06:48:47.368Z,97611.78
2022-09-14T06:51:23.423Z,97619.66
2022-09-14T06:53:51.182Z,97625.31
2022-09-14T06:56:18.832Z,97633.94
2022-09-14T06:58:45.690Z,97629.97
2022-09-14T07:01:15.737Z,97627.41
2022-09-14T07:03:43.997Z,97622.09
2022-09-14T07:06:15.980Z,97621.03
2022-09-14T07:08:43.513Z,97617.41
2022-09-14T07:11:12.260Z,97630.53
2022-09-14T07:13:38.831Z,97635.47
2022-09-14T07:16:06.053Z,97628.69
2022-09-14T07:18:32.835Z,97631.66
2022-09-14T07:21:16.887Z,97631.81
2022-09-14T07:23:45.712Z,97636.69
2022-09-14T07:26:20.983Z,97637.09
2022-09-14T07:28:53.093Z,97645.75
2022-09-14T07:31:24.679Z,97639.00
2022-09-14T07:33:56.652Z,97648.59
2022-09-14T07:36:24.964Z,97655.03
2022-09-14T07:38:53.358Z,97659.59
2022-09-14T07:41:25.786Z,97660.78
2022-09-14T07:43:54.045Z,97657.06
2022-09-14T07:46:21.458Z,97651.78
2022-09-14T07:48:49.174Z,97652.13
2022-09-14T07:51:15.998Z,97642.97
2022-09-14T07:53:43.613Z,97646.41
2022-09-14T07:56:11.859Z,97665.13
2022-09-14T07:58:38.922Z,97665.28
2022-09-14T08:01:09.046Z,97659.78
2022-09-14T08:03:40.169Z,97657.72
2022-09-14T08:06:12.784Z,97659.34
2022-09-14T08:08:41.818Z,97665.66
2022-09-14T08:11:17.495Z,97668.69
2022-09-14T08:13:46.791Z,97689.03
2022-09-14T08:16:13.660Z,97689.50
2022-09-14T08:18:40.576Z,97685.28
2022-09-14T08:21:09.939Z,97683.22
2022-09-14T08:23:37.256Z,97675.47
2022-09-14T08:26:16.784Z,97671.44
2022-09-14T08:28:44.263Z,97680.38
2022-09-14T08:31:13.985Z,97678.00
2022-09-14T08:33:44.189Z,97677.75
2022-09-14T08:36:13.426Z,97675.59
2022-09-14T08:38:39.987Z,97679.22
2022-09-14T08:41:28.920Z,97682.34
2022-09-14T08:44:01.728Z,97679.13
2022-09-14T08:46:35.402Z,97680.63
2022-09-14T08:49:05.439Z,97676.88
2022-09-14T08:51:31.942Z,97678.00
2022-09-14T08:53:59.505Z,97669.19
2022-09-14T08:56:32.109Z,97669.25
2022-09-14T08:59:27.303Z,97665.03
2022-09-14T09:02:05.250Z,97659.88
2022-09-14T09:05:10.623Z,97653.31
2022-09-14T09:07:53.655Z,97655.53
2022-09-14T09:10:20.686Z,97645.38
2022-09-14T09:12:55.050Z,97648.72
2022-09-14T09:15:27.558Z,97643.13
2022-09-14T09:17:59.677Z,97637.75
2022-09-14T09:20:33.540Z,97621.16
2022-09-14T09:23:12.288Z,97616.44
2022-09-14T09:26:03.471Z,97625.97
2022-09-14T09:28:31.241Z,97616.44
2022-09-14T09:31:04.891Z,97605.63
2022-09-14T09:33:32.342Z,97606.25
2022-09-14T09:35:59.486Z,97601.19
2022-09-14T09:38:29.245Z,97595.56
2022-09-14T09:41:05.870Z,97585.31
2022-09-14T09:43:49.383Z,97596.31
2022-09-14T09:46:17.732Z,97590.19
2022-09-14T09:48:45.834Z,97590.06
2022-09-14T09:51:14.075Z,97602.72
2022-09-14T09:53:53.456Z,97598.13
2022-09-14T09:56:31.870Z,97593.28
2022-09-14T09:58:58.479Z,97586.91
2022-09-14T10:01:35.760Z,97598.69
2022-09-14T10:04:20.068Z,97583.09
2022-09-14T10:06:49.825Z,97592.44
2022-09-14T10:09:23.443Z,97580.06
2022-09-14T10:11:57.500Z,97578.41
2022-09-14T10:14:34.591Z,97573.47
2022-09-14T10:17:19.861Z,97565.66
2022-09-14T10:19:53.770Z,97552.16
2022-09-14T10:22:28.061Z,97543.78
2022-09-14T10:24:58.441Z,97537.88
2022-09-14T10:27:38.213Z,97539.91
2022-09-14T10:30:07.299Z,97548.13
2022-09-14T10:32:35.035Z,97544.09
2022-09-14T10:35:01.606Z,97538.13
2022-09-14T10:37:32.073Z,97525.59
2022-09-14T10:40:16.845Z,97537.88
2022-09-14T10:43:02.352Z,97537.88
2022-09-14T10:45:31.413Z,97527.19
2022-09-14T10:48:40.986Z,97540.16
2022-09-14T10:51:27.160Z,97536.16
2022-09-14T10:54:44.219Z,97524.78
2022-09-14T10:57:37.487Z,97518.88
2022-09-14T11:00:12.399Z,97516.50
2022-09-14T11:03:15.906Z,97515.63
2022-09-14T11:06:17.995Z,97516.72
2022-09-14T11:08:49.433Z,97520.94
2022-09-14T11:11:22.880Z,97526.97
2022-09-14T11:14:18.862Z,97528.66
2022-09-14T11:17:06.918Z,97532.09
2022-09-14T11:19:48.586Z,97525.34
2022-09-14T11:22:24.233Z,97524.78
2022-09-14T11:25:03.473Z,97540.44
2022-09-14T11:27:39.909Z,97545.91
2022-09-14T11:30:16.008Z,97549.25
2022-09-14T11:32:52.674Z,97560.56
2022-09-14T11:35:37.729Z,97557.41
2022-09-14T11:38:28.154Z,97575.94
2022-09-14T11:41:21.516Z,97577.91
2022-09-14T11:43:57.983Z,97587.88
2022-09-14T11:46:42.082Z,97580.31
2022-09-14T11:49:26.061Z,97581.91
2022-09-14T11:51:59.076Z,97592.34
2022-09-14T11:54:25.800Z,97586.78
2022-09-14T11:57:03.672Z,97583.41
2022-09-14T11:59:39.474Z,97570.16
2022-09-14T12:02:24.010Z,97577.50
2022-09-14T12:05:05.755Z,97592.16
2022-09-14T12:07:47.122Z,97605.97
2022-09-14T12:10:13.522Z,97604.84
2022-09-14T12:12:45.046Z,97608.13
2022-09-14T12:15:23.098Z,97617.16
2022-09-14T12:17:55.114Z,97619.56
2022-09-14T12:20:33.171Z,97614.06
2022-09-14T12:23:34.499Z,97621.56
2022-09-14T12:26:05.881Z,97629.41
2022-09-14T12:28:35.249Z,97629.41
2022-09-14T12:31:04.734Z,97630.84
2022-09-14T12:33:31.269Z,97642.34
2022-09-14T12:35:57.644Z,97637.00
2022-09-14T12:38:32.905Z,97629.72
2022-09-14T12:41:08.314Z,97636.13
2022-09-14T12:43:37.836Z,97650.66
2022-09-14T12:46:22.619Z,97655.69
2022-09-14T12:48:49.332Z,97654.91
2022-09-14T12:51:34.941Z,97654.25
2022-09-14T12:54:22.753Z,97660.00
2022-09-14T12:57:14.054Z,97661.75
2022-09-14T12:59:55.225Z,97659.19
2022-09-14T13:02:44.450Z,97664.59
2022-09-14T13:05:15.800Z,97664.06
2022-09-14T13:07:42.856Z,97673.91
2022-09-14T13:10:25.153Z,97667.09
2022-09-14T13:12:52.361Z,97662.94
2022-09-14T13:15:37.988Z,97652.13
2022-09-14T13:18:24.701Z,97650.13
2022-09-14T13:20:56.690Z,97658.44
2022-09-14T13:23:28.307Z,97657.34
2022-09-14T13:25:55.067Z,97653.03
2022-09-14T13:28:24.489Z,97654.09
2022-09-14T13:30:56.676Z,97650.56
2022-09-14T13:33:23.592Z,97650.25
2022-09-14T13:35:51.739Z,97652.09
2022-09-14T13:38:22.869Z,97651.06
2022-09-14T13:40:52.497Z,97655.47
2022-09-14T13:43:21.044Z,97645.44
2022-09-14T13:45:49.623Z,97649.44
2022-09-14T13:48:18.562Z,97642.47
2022-09-14T13:50:48.036Z,97640.28
2022-09-14T13:53:45.554Z,97643.84
2022-09-14T13:56:22.944Z,97633.03
2022-09-14T13:59:15.176Z,97630.56
2022-09-14T14:01:49.766Z,97630.53
2022-09-14T14:04:38.479Z,97626.72
2022-09-14T14:07:26.062Z,97625.50
2022-09-14T14:09:55.291Z,97612.72
2022-09-14T14:12:27.688Z,97631.28
2022-09-14T14:15:12.242Z,97631.81
2022-09-14T14:17:40.653Z,97631.06
2022-09-14T14:20:26.123Z,97629.03
2022-09-14T14:23:20.039Z,97625.13
2022-09-14T14:25:52.078Z,97624.41
2022-09-14T14:28:23.644Z,97622.06
2022-09-14T14:30:51.017Z,97622.25
2022-09-14T14:33:19.207Z,97616.13
2022-09-14T14:35:52.714Z,97605.59
2022-09-14T14:38:19.358Z,97594.78
2022-09-14T14:40:46.715Z,97598.69
2022-09-14T14:43:24.892Z,97598.66
2022-09-14T14:45:55.349Z,97609.09
2022-09-14T14:48:21.803Z,97607.47
2022-09-14T14:50:48.458Z,97589.59
2022-09-14T14:53:15.535Z,97592.19
2022-09-14T14:55:42.226Z,97591.28
2022-09-14T14:58:21.565Z,97600.06
2022-09-14T15:00:48.186Z,97597.75
2022-09-14T15:03:15.565Z,97581.03
2022-09-14T15:05:46.916Z,97586.41
2022-09-14T15:08:15.629Z,97587.78
2022-09-14T15:10:42.447Z,97581.34
2022-09-14T15:13:10.643Z,97588.59
2022-09-14T15:15:39.014Z,97589.16
2022-09-14T15:18:05.588Z,97590.22
2022-09-14T15:20:31.999Z,97581.28
2022-09-14T15:22:58.424Z,97584.59
2022-09-14T15:25:24.826Z,97583.25
2022-09-14T15:27:51.330Z,97582.69
2022-09-14T15:30:17.843Z,97566.91
2022-09-14T15:32:44.701Z,97577.88
2022-09-14T15:35:13.295Z,97560.88
2022-09-14T15:37:40.590Z,97545.47
2022-09-14T15:40:07.586Z,97550.00
2022-09-14T15:42:34.128Z,97539.16
2022-09-14T15:45:00.602Z,97527.34
2022-09-14T15:47:27.048Z,97521.63
2022-09-14T15:49:53.521Z,97504.78
2022-09-14T15:52:20.198Z,97504.78
2022-09-14T15:54:46.874Z,97508.63
2022-09-14T15:57:13.508Z,97500.06
2022-09-14T15:59:40.183Z,97503.41
2022-09-14T16:02:07.411Z,97501.81
2022-09-14T16:04:37.965Z,97508.00
2022-09-14T16:07:09.550Z,97509.59
2022-09-14T16:09:38.114Z,97512.69
2022-09-14T16:12:04.821Z,97524.31
2022-09-14T16:14:31.494Z,97534.47
2022-09-14T16:17:00.334Z,97539.94
2022-09-14T16:19:26.881Z,97529.34
2022-09-14T16:21:53.913Z,97531.16
2022-09-14T16:24:21.966Z,97530.47
2022-09-14T16:26:48.531Z,97530.94
2022-09-14T16:29:17.183Z,97525.69
2022-09-14T16:31:45.672Z,97524.31
2022-09-14T16:34:26.804Z,97527.53
2022-09-14T16:36:53.887Z,97533.22
2022-09-14T16:39:23.320Z,97535.38
2022-09-14T16:41:50.452Z,97536.63
2022-09-14T16:44:22.905Z,97532.19
2022-09-14T16:46:49.475Z,97534.81
2022-09-14T16:49:17.184Z,97527.63
2022-09-14T16:51:43.773Z,97531.16
2022-09-14T16:54:15.665Z,97531.84
2022-09-14T16:56:42.224Z,97545.41
2022-09-14T16:59:09.815Z,97529.56
2022-09-14T17:01:40.024Z,97538.00
2022-09-14T17:04:13.279Z,97540.72
2022-09-14T17:06:41.946Z,97542.50
2022-09-14T17:09:20.812Z,97544.56
2022-09-14T17:11:48.522Z,97543.66
2022-09-14T17:14:17.305Z,97553.00
2022-09-14T17:16:43.998Z,97567.88
2022-09-14T17:19:11.357Z,97571.09
2022-09-14T17:21:40.621Z,97560.47
2022-09-14T17:24:08.152Z,97557.28
2022-09-14T17:26:35.317Z,97538.59
2022-09-14T17:29:03.096Z,97555.66
2022-09-14T17:31:36.147Z,97561.72
2022-09-14T17:34:04.752Z,97587.38
2022-09-14T17:36:31.215Z,97585.72
2022-09-14T17:38:59.497Z,97596.47
2022-09-14T17:41:30.386Z,97601.00
2022-09-14T17:44:02.087Z,97599.66
2022-09-14T17:46:29.675Z,97612.47
2022-09-14T17:49:00.567Z,97601.16
2022-09-14T17:51:28.712Z,97613.03
2022-09-14T17:53:57.234Z,97626.63
2022-09-14T17:56:27.338Z,97641.44
2022-09-14T17:59:04.166Z,97633.50
2022-09-14T18:01:31.621Z,97658.75
2022-09-14T18:04:02.467Z,97645.44
2022-09-14T18:06:31.439Z,97638.63
2022-09-14T18:09:01.749Z,97634.69
2022-09-14T18:11:29.122Z,97619.56
2022-09-14T18:13:56.117Z,97607.19
2022-09-14T18:16:24.232Z,97590.38
2022-09-14T18:18:51.536Z,97599.22
2022-09-14T18:21:18.696Z,97601.22
2022-09-14T18:23:50.026Z,97612.16
2022-09-14T18:26:16.858Z,97596.47
2022-09-14T18:28:44.421Z,97597.16
2022-09-14T18:31:13.846Z,97593.75
2022-09-14T18:33:46.052Z,97584.78
2022-09-14T18:36:15.095Z,97582.97
2022-09-14T18:38:42.415Z,97579.97
2022-09-14T18:41:10.689Z,97566.91
2022-09-14T18:43:38.065Z,97553.59
2022-09-14T18:46:08.000Z,97551.38
2022-09-14T18:48:35.244Z,97558.66
2022-09-14T18:51:04.537Z,97555.91
2022-09-14T18:53:31.772Z,97552.53
2022-09-14T18:56:02.913Z,97542.16
2022-09-14T18:58:33.164Z,97545.38
2022-09-14T19:00:59.738Z,97548.09
2022-09-14T19:03:26.179Z,97543.50
2022-09-14T19:05:52.670Z,97548.84
2022-09-14T19:08:19.087Z,97542.75
2022-09-14T19:10:45.729Z,97554.28
2022-09-14T19:13:12.170Z,97551.91
2022-09-14T19:15:40.950Z,97556.09
2022-09-14T19:18:09.041Z,97542.59
2022-09-14T19:21:02.481Z,97545.81
2022-09-14T19:23:26.133Z,97543.50
2022-09-14T19:25:52.637Z,97548.38
2022-09-14T19:28:19.321Z,97558.16
2022-09-14T19:30:46.437Z,97549.97
2022-09-14T19:33:13.049Z,97559.06
2022-09-14T19:35:39.600Z,97581.09
2022-09-14T19:38:06.021Z,97560.94
2022-09-14T19:40:32.574Z,97560.94
2022-09-14T19:42:59.085Z,97575.50
2022-09-14T19:45:25.561Z,97581.91
2022-09-14T19:47:51.979Z,97581.09
2022-09-14T19:50:18.385Z,97580.13
2022-09-14T19:52:44.889Z,97575.50
2022-09-14T19:55:11.319Z,97578.00
2022-09-14T19:57:38.155Z,97574.97
2022-09-14T20:00:07.455Z,97583.63
2022-09-14T20:02:34.033Z,97589.94
2022-09-14T20:05:00.610Z,97575.94
2022-09-14T20:07:27.012Z,97582.84
2022-09-14T20:09:53.461Z,97580.72
2022-09-14T20:12:19.960Z,97584.94
2022-09-14T20:14:46.357Z,97580.31
2022-09-14T20:17:12.777Z,97581.09
2022-09-14T20:19:39.723Z,97589.72
2022-09-14T20:22:06.308Z,97578.72
2022-09-14T20:24:32.845Z,97582.28
2022-09-14T20:27:00.752Z,97588.50
2022-09-14T20:29:30.481Z,97591.78
2022-09-14T20:31:58.294Z,97595.47
2022-09-14T20:34:25.051Z,97603.34
2022-09-14T20:36:52.636Z,97619.34
2022-09-14T20:39:20.814Z,97615.84
2022-09-14T20:41:47.294Z,97622.91
2022-09-14T20:44:14.426Z,97630.59
2022-09-14T20:46:43.126Z,97633.31
2022-09-14T20:49:12.171Z,97635.72
2022-09-14T20:51:39.346Z,97637.81
2022-09-14T20:54:06.945Z,97638.63
2022-09-14T20:56:34.990Z,97635.53
2022-09-14T20:59:06.229Z,97636.06
2022-09-14T21:01:36.051Z,97640.19
2022-09-14T21:04:05.331Z,97638.00
2022-09-14T21:06:31.970Z,97635.41
2022-09-14T21:08:59.898Z,97630.09
2022-09-14T21:11:27.304Z,97632.81
2022-09-14T21:13:55.484Z,97634.75
2022-09-14T21:16:26.189Z,97639.56
2022-09-14T21:18:56.502Z,97644.69
2022-09-14T21:21:23.399Z,97650.13
2022-09-14T21:23:50.692Z,97656.34
2022-09-14T21:26:18.758Z,97659.44
2022-09-14T21:28:45.245Z,97660.41
2022-09-14T21:31:21.541Z,97655.88
2022-09-14T21:33:51.295Z,97652.22
2022-09-14T21:36:19.429Z,97664.41
2022-09-14T21:38:50.756Z,97665.22
2022-09-14T21:41:18.859Z,97669.53
2022-09-14T21:43:45.596Z,97666.94
2022-09-14T21:46:12.132Z,97674.00
2022-09-14T21:48:38.902Z,97689.72
2022-09-14T21:51:06.953Z,97698.50
2022-09-14T21:53:34.451Z,97701.09
2022-09-14T21:56:05.591Z,97700.75
2022-09-14T21:58:32.807Z,97709.72
2022-09-14T22:01:02.109Z,97712.28
2022-09-14T22:03:29.367Z,97708.72
2022-09-14T22:06:07.307Z,97713.91
2022-09-14T22:08:35.193Z,97726.69
2022-09-14T22:11:06.526Z,97718.34
2022-09-14T22:13:33.767Z,97723.03
2022-09-14T22:16:08.033Z,97746.09
2022-09-14T22:18:36.794Z,97747.84
2022-09-14T22:21:04.739Z,97746.50
2022-09-14T22:23:32.794Z,97734.63
2022-09-14T22:25:59.710Z,97741.06
2022-09-14T22:28:26.156Z,97744.09
2022-09-14T22:30:55.094Z,97737.84
2022-09-14T22:33:23.193Z,97738.78
2022-09-14T22:35:57.735Z,97742.13
2022-09-14T22:38:26.098Z,97747.16
2022-09-14T22:40:59.726Z,97743.03
2022-09-14T22:43:27.210Z,97748.09
2022-09-14T22:45:54.552Z,97757.28
2022-09-14T22:48:22.162Z,97759.38
2022-09-14T22:50:50.329Z,97764.50
2022-09-14T22:53:17.621Z,97768.69
2022-09-14T22:55:44.849Z,97764.38
2022-09-14T22:58:14.092Z,97774.66
2022-09-14T23:00:41.681Z,97768.75
2022-09-14T23:03:09.458Z,97780.34
2022-09-14T23:05:37.593Z,97778.09
2022-09-14T23:08:05.873Z,97773.69
2022-09-14T23:10:32.349Z,97771.50
2022-09-14T23:12:59.152Z,97769.00
2022-09-14T23:15:25.581Z,97774.03
2022-09-14T23:17:52.305Z,97777.75
2022-09-14T23:20:18.874Z,97765.84
2022-09-14T23:22:45.293Z,97756.88
2022-09-14T23:25:11.727Z,97747.47
2022-09-14T23:27:38.344Z,97758.44
2022-09-14T23:30:05.161Z,97752.94
2022-09-14T23:32:32.218Z,97746.84
2022-09-14T23:34:58.663Z,97748.94
2022-09-14T23:37:25.178Z,97753.91
2022-09-14T23:39:51.713Z,97737.13
2022-09-14T23:42:18.171Z,97748.63
2022-09-14T23:44:44.684Z,97751.50
2022-09-14T23:47:11.085Z,97748.66
2022-09-14T23:49:37.485Z,97751.53
2022-09-14T23:52:04.026Z,97754.25
2022-09-14T23:54:31.966Z,97748.28
2022-09-14T23:56:58.419Z,97746.78
2022-09-14T23:59:24.835Z,97740.47
